Time;durP1;ratioP1;P1;durP2;ratioP2;P2;SDS_P1;SDS_P2;PMS_P1;PMS_P2;Temp;Humidity;BMP_temperature;BMP_pressure;BME280_temperature;BME280_humidity;BME280_pressure;Samples;Min_cycle;Max_cycle;Signal;HPM_P1;HPM_P2
2023/07/15 00:01:36;;;;;;;10.23;9.93;;;20.10;99.90;;;;;;5121350;28;20229;-79
2023/07/15 00:04:04;;;;;;;10.30;10.00;;;20.10;99.90;;;;;;5120940;28;20240;-78
2023/07/15 00:06:32;;;;;;;10.20;9.90;;;20.10;99.90;;;;;;5119374;28;20280;-78
2023/07/15 00:09:00;;;;;;;10.30;10.00;;;20.00;99.90;;;;;;5119258;28;20247;-78
2023/07/15 00:11:31;;;;;;;10.20;9.90;;;20.00;99.90;;;;;;5119913;28;20317;-78
2023/07/15 00:14:02;;;;;;;10.50;10.20;;;20.00;99.90;;;;;;5119873;28;20220;-78
2023/07/15 00:16:31;;;;;;;10.27;9.98;;;19.90;99.90;;;;;;5119595;28;20282;-78
2023/07/15 00:18:59;;;;;;;10.35;10.05;;;19.90;99.90;;;;;;5119247;28;20221;-79
2023/07/15 00:21:30;;;;;;;10.52;10.23;;;19.90;99.90;;;;;;5120692;28;20233;-78
2023/07/15 00:24:00;;;;;;;10.50;10.20;;;19.80;99.90;;;;;;5119252;28;20232;-78
2023/07/15 00:26:32;;;;;;;10.45;10.15;;;19.80;99.90;;;;;;5119256;28;20244;-79
2023/07/15 00:29:01;;;;;;;10.65;10.35;;;19.70;99.90;;;;;;5120621;28;20244;-78
2023/07/15 00:31:29;;;;;;;10.60;10.30;;;19.70;99.90;;;;;;5120150;28;20243;-78
2023/07/15 00:33:57;;;;;;;10.40;10.10;;;19.70;99.90;;;;;;5120249;28;20248;-78
2023/07/15 00:36:26;;;;;;;10.38;10.07;;;19.70;99.90;;;;;;5120004;28;20240;-78
2023/07/15 00:38:54;;;;;;;10.40;10.10;;;19.60;99.90;;;;;;5122425;27;20232;-80
2023/07/15 00:41:25;;;;;;;10.30;10.00;;;19.60;99.90;;;;;;5126631;28;20288;-78
2023/07/15 00:43:55;;;;;;;10.43;10.13;;;19.60;99.90;;;;;;5124569;28;20225;-78
2023/07/15 00:47:03;;;;;;;10.35;10.05;;;19.50;99.90;;;;;;5127625;27;20228;-78
2023/07/15 00:49:34;;;;;;;10.60;10.30;;;19.40;99.90;;;;;;5128285;27;20334;-78
2023/07/15 00:52:04;;;;;;;10.27;9.98;;;19.40;99.90;;;;;;5126829;28;20320;-78
2023/07/15 00:54:36;;;;;;;10.50;10.20;;;19.40;99.90;;;;;;5128790;28;20231;-77
2023/07/15 00:57:07;;;;;;;10.63;10.32;;;19.30;99.90;;;;;;5129997;28;20243;-78
2023/07/15 00:59:38;;;;;;;10.70;10.40;;;19.30;99.90;;;;;;5129318;27;20299;-78
2023/07/15 01:02:09;;;;;;;10.50;10.20;;;19.30;99.90;;;;;;5128802;28;20221;-78
2023/07/15 01:04:36;;;;;;;10.52;10.23;;;19.20;99.90;;;;;;5127909;28;20233;-78
2023/07/15 01:07:06;;;;;;;10.63;10.32;;;19.20;99.90;;;;;;5128943;28;20296;-78
2023/07/15 01:09:34;;;;;;;10.90;10.60;;;19.20;99.90;;;;;;5129008;27;20237;-78
2023/07/15 01:12:02;;;;;;;10.70;10.40;;;19.20;99.90;;;;;;5127582;28;20268;-78
2023/07/15 01:14:30;;;;;;;10.68;10.38;;;19.20;99.90;;;;;;5122625;28;20288;-79
2023/07/15 01:16:57;;;;;;;10.57;10.27;;;19.20;99.90;;;;;;5122006;28;20232;-78
2023/07/15 01:19:27;;;;;;;10.60;10.30;;;19.20;99.90;;;;;;5121707;27;20285;-79
2023/07/15 01:21:54;;;;;;;10.43;10.13;;;19.20;99.90;;;;;;5127587;28;20229;-78
2023/07/15 01:24:26;;;;;;;10.68;10.38;;;19.20;99.90;;;;;;5122310;28;20239;-78
2023/07/15 01:26:59;;;;;;;10.70;10.40;;;19.10;99.90;;;;;;5122076;28;20229;-78
2023/07/15 01:29:26;;;;;;;10.68;10.38;;;19.00;99.90;;;;;;5121024;27;20238;-79
2023/07/15 01:31:54;;;;;;;10.80;10.50;;;19.00;99.90;;;;;;5121832;28;20231;-78
2023/07/15 01:34:21;;;;;;;10.60;10.30;;;19.00;99.90;;;;;;5122546;28;20323;-78
2023/07/15 01:36:49;;;;;;;10.70;10.40;;;18.90;99.90;;;;;;5122547;28;20239;-79
2023/07/15 01:39:16;;;;;;;10.73;10.43;;;18.90;99.90;;;;;;5121871;27;20232;-78
2023/07/15 01:41:46;;;;;;;10.90;10.60;;;18.90;99.90;;;;;;5122189;28;20232;-79
2023/07/15 01:44:14;;;;;;;10.50;10.20;;;18.80;99.90;;;;;;5121222;28;20233;-78
2023/07/15 01:46:42;;;;;;;10.90;10.60;;;18.80;99.90;;;;;;5121346;28;20233;-78
2023/07/15 01:49:10;;;;;;;10.68;10.38;;;18.80;99.90;;;;;;5120650;28;20240;-78
2023/07/15 01:51:37;;;;;;;10.75;10.45;;;18.70;99.90;;;;;;5121816;28;20239;-79
2023/07/15 01:54:05;;;;;;;10.70;10.40;;;18.70;99.90;;;;;;5121068;28;20232;-79
2023/07/15 01:56:33;;;;;;;10.90;10.60;;;18.70;99.90;;;;;;5120798;27;20229;-79
2023/07/15 01:59:02;;;;;;;10.77;10.48;;;18.70;99.90;;;;;;5120935;27;20236;-79
2023/07/15 02:01:31;;;;;;;10.90;10.60;;;18.70;99.90;;;;;;5121905;28;20229;-78
2023/07/15 02:03:59;;;;;;;10.95;10.65;;;18.60;99.90;;;;;;5123876;28;20826;-78
2023/07/15 02:06:27;;;;;;;10.80;10.50;;;18.60;99.90;;;;;;5123153;28;20233;-78
2023/07/15 02:08:54;;;;;;;10.70;10.40;;;18.60;99.90;;;;;;5124202;27;20228;-78
2023/07/15 02:11:22;;;;;;;10.65;10.35;;;18.60;99.90;;;;;;5122552;28;20228;-78
2023/07/15 02:13:50;;;;;;;10.60;10.30;;;18.50;99.90;;;;;;5122899;28;20235;-79
2023/07/15 02:16:19;;;;;;;10.70;10.40;;;18.50;99.90;;;;;;5121151;28;20229;-78
2023/07/15 02:18:48;;;;;;;10.60;10.30;;;18.50;99.90;;;;;;5120784;27;20229;-78
2023/07/15 02:21:15;;;;;;;10.80;10.50;;;18.50;99.90;;;;;;5121139;28;20229;-78
2023/07/15 02:23:43;;;;;;;10.82;10.52;;;18.50;99.90;;;;;;5120709;28;20304;-78
2023/07/15 02:26:11;;;;;;;10.80;10.50;;;18.50;99.90;;;;;;5121150;28;20233;-78
2023/07/15 02:28:38;;;;;;;10.70;10.40;;;18.40;99.90;;;;;;5120550;28;20239;-79
2023/07/15 02:31:06;;;;;;;10.80;10.50;;;18.40;99.90;;;;;;5121648;28;20374;-78
2023/07/15 02:33:35;;;;;;;10.68;10.38;;;18.40;99.90;;;;;;5120797;28;20228;-79
2023/07/15 02:36:04;;;;;;;10.80;10.50;;;18.40;99.90;;;;;;5120310;28;20275;-78
2023/07/15 02:38:32;;;;;;;10.52;10.23;;;18.40;99.90;;;;;;5120113;28;20263;-78
2023/07/15 02:40:59;;;;;;;10.60;10.30;;;18.40;99.90;;;;;;5120774;28;20217;-78
2023/07/15 02:43:27;;;;;;;10.90;10.60;;;18.40;99.90;;;;;;5121302;28;20229;-78
2023/07/15 02:45:56;;;;;;;10.43;10.13;;;18.40;99.90;;;;;;5125719;28;20228;-78
2023/07/15 02:48:24;;;;;;;10.57;10.27;;;18.40;99.90;;;;;;5120412;27;20233;-79
2023/07/15 02:50:54;;;;;;;10.70;10.40;;;18.40;99.90;;;;;;5120812;28;20324;-79
2023/07/15 02:53:22;;;;;;;10.90;10.60;;;18.40;99.90;;;;;;5120785;28;20241;-78
2023/07/15 02:55:49;;;;;;;10.85;10.55;;;18.40;99.90;;;;;;5126437;28;20256;-78
2023/07/15 02:58:18;;;;;;;11.50;11.10;;;18.40;99.90;;;;;;5126476;27;20236;-78
2023/07/15 03:00:46;;;;;;;11.25;10.95;;;18.40;99.90;;;;;;5122004;28;20231;-78
2023/07/15 03:03:13;;;;;;;11.20;10.90;;;18.30;99.90;;;;;;5121718;28;20236;-78
2023/07/15 03:05:46;;;;;;;11.02;10.73;;;18.30;99.90;;;;;;5120444;28;20243;-78
2023/07/15 03:08:15;;;;;;;11.57;11.18;;;18.30;99.90;;;;;;5119905;27;20229;-79
2023/07/15 03:10:44;;;;;;;11.20;10.90;;;18.30;99.90;;;;;;5120877;28;20275;-80
2023/07/15 03:13:12;;;;;;;11.30;11.00;;;18.30;99.90;;;;;;5120771;28;20235;-78
2023/07/15 03:15:41;;;;;;;11.02;10.73;;;18.30;99.90;;;;;;5119969;28;20327;-79
2023/07/15 03:18:08;;;;;;;11.18;10.88;;;18.30;99.90;;;;;;5120183;27;20235;-78
2023/07/15 03:20:36;;;;;;;11.70;11.30;;;18.30;99.90;;;;;;5120518;28;20319;-79
2023/07/15 03:23:03;;;;;;;11.15;10.85;;;18.30;99.90;;;;;;5120667;28;20263;-78
2023/07/15 03:25:33;;;;;;;11.90;11.50;;;18.40;99.90;;;;;;5119995;28;20228;-78
2023/07/15 03:28:00;;;;;;;11.38;11.02;;;18.30;99.90;;;;;;5119893;28;20315;-78
2023/07/15 03:30:29;;;;;;;11.52;11.13;;;18.30;99.90;;;;;;5120022;28;20320;-80
2023/07/15 03:32:58;;;;;;;11.40;11.00;;;18.30;99.90;;;;;;5120775;28;20232;-78
2023/07/15 03:35:26;;;;;;;10.95;10.65;;;18.30;99.90;;;;;;5120155;28;20235;-78
2023/07/15 03:37:54;;;;;;;11.02;10.73;;;18.30;99.90;;;;;;5120135;28;20232;-78
2023/07/15 03:40:22;;;;;;;11.20;10.90;;;18.30;99.90;;;;;;5120362;28;20233;-79
2023/07/15 03:42:50;;;;;;;11.23;10.93;;;18.20;99.90;;;;;;5120286;28;20225;-79
2023/07/15 03:45:18;;;;;;;11.50;11.10;;;18.20;99.90;;;;;;5119610;28;20236;-78
2023/07/15 03:47:45;;;;;;;11.20;10.90;;;18.10;99.90;;;;;;5119530;28;20244;-78
2023/07/15 03:50:13;;;;;;;11.25;10.93;;;18.10;99.90;;;;;;5118993;27;20327;-79
2023/07/15 03:52:41;;;;;;;11.27;10.98;;;18.10;99.90;;;;;;5120818;28;20233;-78
2023/07/15 03:55:09;;;;;;;11.50;11.10;;;18.10;99.90;;;;;;5122477;28;20255;-77
2023/07/15 03:57:37;;;;;;;11.30;10.95;;;18.20;99.90;;;;;;5122998;28;20221;-78
2023/07/15 04:00:13;;;;;;;11.10;10.80;;;18.20;99.90;;;;;;5121266;28;20229;-78
2023/07/15 04:02:44;;;;;;;10.93;10.63;;;18.20;99.90;;;;;;5120797;28;20236;-79
2023/07/15 04:05:12;;;;;;;11.00;10.70;;;18.20;99.90;;;;;;5119875;28;20239;-78
2023/07/15 04:07:40;;;;;;;10.80;10.50;;;18.20;99.90;;;;;;5121940;28;20216;-78
2023/07/15 04:10:09;;;;;;;10.93;10.63;;;18.20;99.90;;;;;;5123626;27;20235;-78
2023/07/15 04:12:36;;;;;;;11.00;10.70;;;18.20;99.90;;;;;;5119854;28;20262;-79
2023/07/15 04:15:08;;;;;;;10.88;10.57;;;18.30;99.90;;;;;;5119444;28;20288;-79
2023/07/15 04:17:35;;;;;;;10.90;10.60;;;18.30;99.90;;;;;;5119481;28;20240;-78
2023/07/15 04:20:10;;;;;;;11.00;10.70;;;18.30;99.90;;;;;;5120910;27;20293;-79
2023/07/15 04:22:38;;;;;;;10.90;10.60;;;18.40;99.90;;;;;;5123555;28;20285;-78
2023/07/15 04:25:07;;;;;;;10.98;10.68;;;18.40;99.90;;;;;;5123434;28;20229;-78
2023/07/15 04:27:34;;;;;;;10.77;10.48;;;18.50;99.90;;;;;;5122815;28;20296;-79
2023/07/15 04:30:03;;;;;;;10.73;10.43;;;18.50;99.90;;;;;;5123198;28;20328;-79
2023/07/15 04:32:32;;;;;;;10.80;10.50;;;18.60;99.90;;;;;;5123334;28;20257;-78
2023/07/15 04:35:01;;;;;;;10.70;10.40;;;18.60;99.90;;;;;;5123795;28;20237;-80
2023/07/15 04:37:29;;;;;;;10.80;10.50;;;18.70;99.90;;;;;;5124606;28;20220;-80
2023/07/15 04:39:57;;;;;;;11.00;10.70;;;18.70;99.90;;;;;;5124033;27;20248;-80
2023/07/15 04:42:24;;;;;;;10.90;10.60;;;18.80;99.90;;;;;;5124499;28;20286;-80
2023/07/15 04:44:52;;;;;;;11.00;10.70;;;18.80;99.90;;;;;;5124563;28;20221;-79
2023/07/15 04:47:20;;;;;;;11.02;10.73;;;18.90;99.90;;;;;;5124188;28;20225;-80
2023/07/15 04:49:49;;;;;;;11.02;10.73;;;19.00;99.90;;;;;;5146538;22;20244;-84
2023/07/15 04:52:16;;;;;;;10.88;10.57;;;19.00;99.90;;;;;;5146952;27;20250;-85
2023/07/15 04:54:44;;;;;;;10.90;10.60;;;19.10;99.90;;;;;;5146753;27;20223;-86
2023/07/15 04:57:12;;;;;;;11.13;10.82;;;19.20;99.90;;;;;;5146935;27;20231;-86
2023/07/15 04:59:39;;;;;;;11.20;10.90;;;19.20;99.90;;;;;;5138500;27;20221;-86
2023/07/15 05:02:07;;;;;;;11.40;11.00;;;19.30;99.90;;;;;;5125988;28;20283;-86
2023/07/15 05:04:37;;;;;;;11.40;11.00;;;19.40;99.90;;;;;;5131474;28;20286;-85
2023/07/15 05:07:06;;;;;;;11.05;10.75;;;19.50;99.90;;;;;;5134274;28;20231;-85
2023/07/15 05:09:34;;;;;;;11.13;10.82;;;19.60;99.90;;;;;;5135526;27;20221;-86
2023/07/15 05:12:02;;;;;;;11.50;11.10;;;19.70;99.90;;;;;;5136371;28;20287;-84
2023/07/15 05:14:30;;;;;;;11.27;10.90;;;19.80;99.90;;;;;;5136301;28;20233;-86
2023/07/15 05:16:58;;;;;;;11.20;10.90;;;19.90;99.90;;;;;;5133908;28;20221;-84
2023/07/15 05:19:26;;;;;;;11.32;10.95;;;20.00;99.90;;;;;;5139687;27;20224;-86
2023/07/15 05:21:54;;;;;;;11.27;10.88;;;20.20;99.90;;;;;;5140867;28;20229;-85
2023/07/15 05:24:28;;;;;;;11.40;11.00;;;20.20;99.90;;;;;;5137129;28;20236;-85
2023/07/15 05:26:56;;;;;;;11.48;11.07;;;20.30;99.90;;;;;;5128036;28;20221;-86
2023/07/15 05:29:24;;;;;;;11.27;10.90;;;20.40;99.90;;;;;;5133335;27;20276;-86
2023/07/15 05:31:52;;;;;;;11.48;11.07;;;20.40;99.90;;;;;;5125799;27;20263;-85
2023/07/15 05:34:20;;;;;;;11.35;10.95;;;20.50;99.90;;;;;;5123853;28;20279;-85
2023/07/15 05:36:48;;;;;;;11.50;11.10;;;20.60;99.90;;;;;;5124450;28;20233;-86
2023/07/15 05:39:17;;;;;;;11.45;11.05;;;20.70;99.90;;;;;;5125483;27;20276;-86
2023/07/15 05:41:46;;;;;;;11.15;10.85;;;20.80;99.90;;;;;;5126928;28;20236;-86
2023/07/15 05:44:14;;;;;;;11.10;10.80;;;20.90;99.90;;;;;;5127241;28;20302;-86
2023/07/15 05:46:41;;;;;;;11.50;11.10;;;21.00;99.90;;;;;;5126919;28;20243;-85
2023/07/15 05:49:09;;;;;;;11.43;11.02;;;21.10;99.90;;;;;;5128398;27;20251;-85
2023/07/15 05:51:37;;;;;;;11.40;11.00;;;21.30;99.90;;;;;;5137581;28;20256;-86
2023/07/15 05:54:05;;;;;;;11.50;11.10;;;21.40;99.90;;;;;;5132374;27;20220;-86
2023/07/15 05:56:33;;;;;;;11.32;11.00;;;21.40;99.90;;;;;;5126932;28;20235;-86
2023/07/15 05:59:02;;;;;;;11.45;11.05;;;21.60;99.90;;;;;;5125902;27;20233;-86
2023/07/15 06:01:30;;;;;;;11.35;10.95;;;21.70;99.90;;;;;;5126827;28;20236;-86
2023/07/15 06:03:58;;;;;;;11.40;11.00;;;21.80;99.90;;;;;;5127125;28;20225;-86
2023/07/15 06:06:26;;;;;;;11.32;10.93;;;21.90;99.90;;;;;;5125627;28;20251;-84
2023/07/15 06:08:54;;;;;;;11.50;11.10;;;22.00;99.90;;;;;;5125741;27;21067;-85
2023/07/15 06:11:23;;;;;;;11.50;11.10;;;22.20;99.90;;;;;;5127125;28;20247;-86
2023/07/15 06:13:54;;;;;;;11.43;11.02;;;22.30;99.90;;;;;;5126350;28;20252;-86
2023/07/15 06:16:26;;;;;;;11.68;11.27;;;22.40;99.90;;;;;;5126548;28;20243;-85
2023/07/15 06:18:55;;;;;;;11.80;11.40;;;22.50;99.90;;;;;;5126390;27;20243;-86
2023/07/15 06:21:23;;;;;;;11.80;11.40;;;22.70;99.90;;;;;;5126601;28;20229;-85
2023/07/15 06:23:51;;;;;;;11.57;11.18;;;22.80;99.90;;;;;;5125764;28;20232;-85
2023/07/15 06:26:19;;;;;;;11.68;11.27;;;23.00;99.90;;;;;;5126297;28;20316;-85
2023/07/15 06:28:49;;;;;;;11.60;11.20;;;23.10;99.90;;;;;;5126089;27;20224;-86
2023/07/15 06:31:19;;;;;;;11.55;11.15;;;23.20;99.90;;;;;;5126989;28;20248;-86
2023/07/15 06:33:49;;;;;;;11.35;11.05;;;23.30;99.90;;;;;;5128346;28;20237;-86
2023/07/15 06:36:20;;;;;;;11.25;10.95;;;23.40;99.90;;;;;;5126681;28;20229;-84
2023/07/15 06:38:48;;;;;;;11.15;10.85;;;23.60;99.90;;;;;;5127437;28;20236;-84
2023/07/15 06:41:16;;;;;;;11.18;10.88;;;23.80;99.90;;;;;;5126424;28;20241;-86
2023/07/15 06:43:44;;;;;;;11.23;10.93;;;24.00;99.90;;;;;;5126086;27;20254;-85
2023/07/15 06:46:12;;;;;;;11.27;10.98;;;24.20;99.90;;;;;;5124950;28;20229;-86
2023/07/15 06:48:39;;;;;;;11.15;10.85;;;24.30;99.90;;;;;;5125333;27;20253;-86
2023/07/15 06:51:10;;;;;;;11.25;10.95;;;24.50;99.90;;;;;;5126047;28;20236;-86
2023/07/15 06:53:38;;;;;;;11.23;10.93;;;24.60;99.90;;;;;;5125250;28;20233;-86
2023/07/15 06:56:06;;;;;;;11.50;11.10;;;24.70;99.90;;;;;;5124566;28;20236;-85
2023/07/15 06:58:33;;;;;;;11.48;11.07;;;24.80;99.90;;;;;;5125891;28;20289;-86
2023/07/15 07:01:03;;;;;;;11.60;11.20;;;24.80;99.90;;;;;;5126394;28;20233;-86
2023/07/15 07:03:31;;;;;;;11.27;10.98;;;24.90;99.90;;;;;;5125791;28;20252;-85
2023/07/15 07:05:59;;;;;;;11.32;10.93;;;25.00;99.90;;;;;;5125372;28;20229;-85
2023/07/15 07:08:29;;;;;;;11.50;11.10;;;25.10;99.90;;;;;;5126024;28;20220;-85
2023/07/15 07:10:57;;;;;;;11.60;11.20;;;25.30;99.90;;;;;;5129362;28;20213;-85
2023/07/15 07:13:24;;;;;;;11.10;10.80;;;25.40;99.90;;;;;;5121501;28;20237;-85
2023/07/15 07:15:58;;;;;;;11.30;11.00;;;25.60;99.90;;;;;;5122180;28;20296;-86
2023/07/15 07:18:26;;;;;;;11.20;10.90;;;25.70;99.90;;;;;;5126221;28;20240;-86
2023/07/15 07:20:58;;;;;;;11.18;10.88;;;25.90;99.90;;;;;;5124702;27;20236;-85
2023/07/15 07:23:29;;;;;;;11.27;10.98;;;26.10;99.90;;;;;;5124695;28;20229;-86
2023/07/15 07:25:57;;;;;;;11.02;10.73;;;26.20;99.90;;;;;;5124705;28;20221;-85
2023/07/15 07:28:41;;;;;;;11.13;10.82;;;26.40;99.90;;;;;;5125156;28;20272;-85
2023/07/15 07:31:10;;;;;;;11.10;10.80;;;26.50;99.90;;;;;;5125931;28;20277;-86
2023/07/15 07:33:39;;;;;;;11.02;10.73;;;26.70;99.90;;;;;;5130142;28;20257;-85
2023/07/15 07:36:07;;;;;;;11.15;10.85;;;26.80;99.90;;;;;;5129856;28;20221;-85
2023/07/15 07:38:39;;;;;;;11.10;10.80;;;27.00;99.90;;;;;;5126921;28;20223;-85
2023/07/15 07:41:08;;;;;;;11.02;10.73;;;27.10;99.90;;;;;;5126615;28;20236;-85
2023/07/15 07:43:36;;;;;;;11.20;10.90;;;27.20;99.90;;;;;;5123934;28;20229;-86
2023/07/15 07:46:06;;;;;;;11.07;10.77;;;27.30;99.90;;;;;;5125210;28;20233;-85
2023/07/15 07:48:34;;;;;;;11.20;10.90;;;27.50;99.90;;;;;;5124909;28;20286;-85
2023/07/15 07:51:02;;;;;;;11.25;10.95;;;27.60;99.90;;;;;;5124262;27;20232;-85
2023/07/15 07:53:32;;;;;;;11.30;11.00;;;27.80;99.90;;;;;;5123855;28;20315;-85
2023/07/15 07:56:01;;;;;;;11.18;10.88;;;27.90;99.90;;;;;;5126453;27;20236;-84
2023/07/15 07:58:29;;;;;;;11.10;10.80;;;28.10;99.90;;;;;;5126796;28;20277;-85
2023/07/15 08:00:56;;;;;;;11.10;10.80;;;28.20;99.90;;;;;;5125864;27;20254;-85
2023/07/15 08:03:24;;;;;;;10.80;10.50;;;28.40;99.90;;;;;;5127202;28;20220;-85
2023/07/15 08:05:52;;;;;;;10.95;10.65;;;28.50;99.90;;;;;;5127073;28;20229;-86
2023/07/15 08:08:20;;;;;;;11.05;10.75;;;28.60;99.90;;;;;;5127751;28;20221;-85
2023/07/15 08:10:48;;;;;;;11.07;10.77;;;28.80;99.90;;;;;;5126798;27;20263;-85
2023/07/15 08:13:17;;;;;;;11.00;10.70;;;28.90;99.90;;;;;;5126392;28;20233;-86
2023/07/15 08:15:45;;;;;;;11.15;10.85;;;29.10;99.90;;;;;;5126005;28;20238;-86
2023/07/15 08:18:13;;;;;;;11.20;10.90;;;29.20;99.90;;;;;;5127259;28;20225;-85
2023/07/15 08:20:42;;;;;;;11.27;10.98;;;29.30;99.90;;;;;;5125348;27;20243;-85
2023/07/15 08:23:10;;;;;;;11.40;11.10;;;29.40;99.90;;;;;;5125675;28;20221;-86
2023/07/15 08:25:39;;;;;;;11.43;11.13;;;29.40;99.90;;;;;;5133607;28;20227;-85
2023/07/15 08:28:07;;;;;;;11.27;10.98;;;29.50;99.90;;;;;;5132584;28;20232;-85
2023/07/15 08:30:36;;;;;;;11.18;10.88;;;29.70;99.90;;;;;;5136152;27;20263;-84
2023/07/15 08:33:04;;;;;;;11.23;10.93;;;29.80;99.90;;;;;;5126787;28;20239;-85
2023/07/15 08:35:32;;;;;;;11.27;10.98;;;30.00;99.90;;;;;;5124047;28;20232;-85
2023/07/15 08:38:00;;;;;;;11.45;11.15;;;30.10;99.90;;;;;;5124564;28;20233;-85
2023/07/15 08:40:28;;;;;;;11.38;11.07;;;30.20;99.90;;;;;;5128467;27;20232;-85
2023/07/15 08:42:58;;;;;;;11.18;10.88;;;30.40;99.90;;;;;;5126745;28;20233;-86
2023/07/15 08:45:33;;;;;;;11.30;11.00;;;30.40;99.90;;;;;;5124708;28;20357;-85
2023/07/15 08:48:03;;;;;;;11.20;10.90;;;30.50;99.90;;;;;;5126916;28;20224;-85
2023/07/15 08:50:35;;;;;;;11.40;11.10;;;30.70;99.90;;;;;;5126850;27;20879;-85
2023/07/15 08:53:03;;;;;;;11.55;11.25;;;30.80;99.90;;;;;;5130519;28;20235;-85
2023/07/15 08:55:31;;;;;;;11.35;11.05;;;30.90;99.90;;;;;;5135052;27;20256;-85
2023/07/15 08:58:00;;;;;;;11.18;10.88;;;31.00;99.90;;;;;;5125823;28;20229;-85
2023/07/15 09:00:30;;;;;;;11.20;10.90;;;31.20;99.90;;;;;;5126380;27;20232;-84
2023/07/15 09:02:58;;;;;;;10.90;10.60;;;31.40;99.90;;;;;;5125731;28;20231;-85
2023/07/15 09:05:28;;;;;;;11.20;10.90;;;31.50;99.90;;;;;;5125230;28;20331;-85
2023/07/15 09:07:58;;;;;;;11.27;10.98;;;31.70;99.90;;;;;;5124099;28;20232;-86
2023/07/15 09:10:28;;;;;;;11.20;10.90;;;32.00;99.90;;;;;;5125368;27;20252;-85
2023/07/15 09:12:56;;;;;;;11.25;10.95;;;32.20;99.90;;;;;;5127341;28;20248;-84
2023/07/15 09:15:24;;;;;;;11.45;11.15;;;32.40;99.90;;;;;;5125433;28;20229;-86
2023/07/15 09:17:57;;;;;;;11.15;10.85;;;32.60;99.90;;;;;;5125441;28;20225;-86
2023/07/15 09:20:28;;;;;;;11.30;11.00;;;32.80;99.90;;;;;;5123361;28;20240;-85
2023/07/15 09:23:03;;;;;;;11.13;10.82;;;33.00;99.90;;;;;;5124838;28;20232;-85
2023/07/15 09:25:30;;;;;;;11.32;11.02;;;33.00;99.90;;;;;;5123815;28;20224;-84
2023/07/15 09:27:58;;;;;;;11.10;10.80;;;32.90;99.90;;;;;;5124102;28;20232;-84
2023/07/15 09:30:25;;;;;;;11.40;11.10;;;32.90;99.90;;;;;;5123984;27;20268;-85
2023/07/15 09:32:55;;;;;;;11.38;11.07;;;33.10;99.90;;;;;;5123454;28;20299;-85
2023/07/15 09:35:36;;;;;;;11.57;11.23;;;33.50;99.90;;;;;;5122455;28;20233;-85
2023/07/15 09:38:04;;;;;;;11.75;11.35;;;33.60;99.90;;;;;;5122453;28;20243;-86
2023/07/15 09:40:42;;;;;;;11.73;11.32;;;33.70;99.90;;;;;;5121553;27;20241;-85
2023/07/15 09:43:11;;;;;;;11.77;11.38;;;33.80;99.90;;;;;;5122682;28;20220;-85
2023/07/15 09:45:40;;;;;;;11.80;11.40;;;33.80;99.90;;;;;;5122055;28;20232;-86
2023/07/15 09:48:10;;;;;;;11.57;11.27;;;33.70;99.90;;;;;;5122450;28;20232;-86
2023/07/15 09:50:41;;;;;;;11.55;11.25;;;33.70;99.90;;;;;;5122460;27;20241;-86
2023/07/15 09:53:10;;;;;;;11.45;11.15;;;33.70;99.90;;;;;;5121901;28;20232;-86
2023/07/15 09:55:41;;;;;;;11.38;11.07;;;33.80;99.90;;;;;;5121418;28;20674;-85
2023/07/15 09:58:23;;;;;;;11.30;11.00;;;34.00;99.90;;;;;;5121650;28;20235;-86
2023/07/15 10:00:54;;;;;;;11.50;11.20;;;34.10;99.90;;;;;;5120688;28;20229;-85
2023/07/15 10:03:30;;;;;;;11.30;11.00;;;34.30;99.90;;;;;;5121614;28;20258;-86
2023/07/15 10:06:01;;;;;;;11.38;11.07;;;34.30;99.90;;;;;;5121404;28;20306;-85
2023/07/15 10:08:30;;;;;;;11.27;10.98;;;34.20;99.90;;;;;;5121455;28;20290;-86
2023/07/15 10:10:59;;;;;;;11.27;10.98;;;34.30;99.90;;;;;;5120696;27;20247;-85
2023/07/15 10:13:29;;;;;;;11.30;11.00;;;34.50;99.90;;;;;;5133395;28;20221;-85
2023/07/15 10:16:00;;;;;;;11.35;11.05;;;34.60;99.90;;;;;;5136706;28;20229;-87
2023/07/15 10:18:32;;;;;;;10.90;10.60;;;34.70;99.90;;;;;;5135428;27;20336;-86
2023/07/15 10:21:05;;;;;;;11.38;11.07;;;34.90;99.90;;;;;;5125466;28;20315;-86
2023/07/15 10:23:34;;;;;;;11.55;11.23;;;35.20;99.90;;;;;;5122398;28;20335;-86
2023/07/15 10:26:08;;;;;;;11.27;10.98;;;35.50;99.90;;;;;;5121839;28;20271;-85
2023/07/15 10:28:38;;;;;;;11.40;11.10;;;35.70;99.90;;;;;;5122547;28;20232;-85
2023/07/15 10:31:09;;;;;;;11.00;10.70;;;35.50;99.90;;;;;;5141145;27;20245;-85
2023/07/15 10:33:52;;;;;;;11.35;11.05;;;35.30;99.90;;;;;;5136145;27;20316;-86
2023/07/15 10:36:37;;;;;;;11.25;10.95;;;35.30;99.90;;;;;;5127103;28;20242;-85
2023/07/15 10:39:14;;;;;;;11.32;11.02;;;35.20;99.90;;;;;;5121525;27;20264;-86
2023/07/15 10:41:47;;;;;;;11.60;11.20;;;35.30;99.90;;;;;;5121717;28;20311;-85
2023/07/15 10:44:20;;;;;;;11.43;11.13;;;35.50;99.90;;;;;;5121507;28;20290;-85
2023/07/15 10:46:49;;;;;;;11.40;11.10;;;35.90;99.90;;;;;;5120288;28;20224;-85
2023/07/15 10:49:17;;;;;;;11.25;10.95;;;36.10;99.90;;;;;;5146337;22;20255;-80
2023/07/15 10:51:50;;;;;;;11.27;10.98;;;36.10;99.90;;;;;;5144236;27;20232;-80
2023/07/15 10:54:21;;;;;;;11.70;11.30;;;36.10;99.90;;;;;;5144657;27;20243;-80
2023/07/15 10:56:49;;;;;;;11.32;11.02;;;36.20;99.90;;;;;;5143867;27;20228;-80
2023/07/15 10:59:17;;;;;;;11.30;11.00;;;36.20;99.90;;;;;;5143679;27;20220;-81
2023/07/15 11:01:45;;;;;;;11.25;10.95;;;36.20;99.90;;;;;;5123057;28;20224;-81
2023/07/15 11:04:15;;;;;;;11.02;10.73;;;36.10;99.90;;;;;;5123008;28;20822;-80
2023/07/15 11:06:43;;;;;;;11.32;11.02;;;36.20;99.90;;;;;;5122726;28;20226;-80
2023/07/15 11:09:20;;;;;;;11.60;11.20;;;36.10;99.90;;;;;;5122835;27;20255;-80
2023/07/15 11:11:49;;;;;;;11.63;11.23;;;36.20;99.90;;;;;;5125118;28;20270;-80
2023/07/15 11:14:25;;;;;;;11.50;11.10;;;36.20;99.90;;;;;;5124274;28;20290;-80
2023/07/15 11:16:54;;;;;;;11.55;11.18;;;36.10;99.90;;;;;;5123823;28;20240;-80
2023/07/15 11:19:23;;;;;;;11.35;11.05;;;36.00;99.90;;;;;;5123745;27;20372;-80
2023/07/15 11:21:56;;;;;;;11.23;10.93;;;35.80;99.90;;;;;;5122773;28;20251;-80
2023/07/15 11:24:26;;;;;;;11.15;10.85;;;36.00;99.90;;;;;;5123073;28;20292;-81
2023/07/15 11:26:54;;;;;;;11.20;10.90;;;36.10;99.90;;;;;;5123504;28;20225;-80
2023/07/15 11:29:24;;;;;;;11.35;11.05;;;35.90;99.90;;;;;;5123991;27;20324;-80
2023/07/15 11:31:53;;;;;;;11.48;11.15;;;35.90;99.90;;;;;;5124199;28;20236;-80
2023/07/15 11:34:24;;;;;;;11.73;11.32;;;36.10;99.90;;;;;;5127807;28;20236;-80
2023/07/15 11:36:53;;;;;;;11.45;11.13;;;36.40;99.90;;;;;;5133980;28;20263;-81
2023/07/15 11:39:22;;;;;;;11.60;11.20;;;36.80;99.90;;;;;;5134066;27;20207;-80
2023/07/15 11:41:52;;;;;;;11.60;11.23;;;36.60;99.90;;;;;;5133804;28;20237;-80
2023/07/15 11:44:24;;;;;;;11.48;11.18;;;36.40;99.90;;;;;;5134684;28;21044;-80
2023/07/15 11:46:57;;;;;;;11.48;11.15;;;36.70;99.90;;;;;;5134757;28;20221;-80
2023/07/15 11:49:25;;;;;;;11.40;11.10;;;36.90;99.90;;;;;;5134419;28;20251;-80
2023/07/15 11:51:57;;;;;;;11.70;11.30;;;37.00;99.90;;;;;;5135132;28;20228;-80
2023/07/15 11:54:25;;;;;;;11.75;11.35;;;36.90;99.90;;;;;;5135743;28;20240;-80
2023/07/15 11:56:55;;;;;;;11.73;11.32;;;36.70;99.90;;;;;;5134744;28;20238;-80
2023/07/15 11:59:32;;;;;;;11.57;11.25;;;36.80;99.90;;;;;;5135621;27;20236;-81
2023/07/15 12:02:03;;;;;;;11.35;11.05;;;36.90;99.90;;;;;;5134439;28;20250;-81
2023/07/15 12:04:31;;;;;;;11.45;11.15;;;37.00;99.90;;;;;;5133638;28;20247;-81
2023/07/15 12:06:59;;;;;;;11.52;11.23;;;37.20;99.90;;;;;;5128536;28;20216;-81
2023/07/15 12:09:27;;;;;;;11.30;11.00;;;37.20;99.90;;;;;;5128673;28;20225;-81
2023/07/15 12:11:56;;;;;;;11.13;10.82;;;36.90;99.90;;;;;;5126862;28;20236;-81
2023/07/15 12:14:25;;;;;;;11.25;10.95;;;37.10;99.90;;;;;;5125455;28;20233;-78
2023/07/15 12:16:55;;;;;;;11.32;11.02;;;37.40;99.90;;;;;;5124009;28;20297;-79
2023/07/15 12:19:23;;;;;;;11.32;11.02;;;37.20;99.90;;;;;;5125099;27;20237;-79
2023/07/15 12:21:50;;;;;;;11.07;10.77;;;37.30;99.90;;;;;;5124033;28;20239;-79
2023/07/15 12:24:18;;;;;;;11.02;10.73;;;37.50;99.90;;;;;;5124511;28;20236;-79
2023/07/15 12:26:46;;;;;;;10.88;10.57;;;37.70;99.90;;;;;;5122514;28;20288;-79
2023/07/15 12:29:15;;;;;;;10.98;10.68;;;37.70;99.90;;;;;;5123685;27;20225;-80
2023/07/15 12:31:42;;;;;;;10.95;10.65;;;37.90;99.90;;;;;;5122669;28;20224;-81
2023/07/15 12:34:10;;;;;;;10.88;10.57;;;37.70;99.90;;;;;;5123328;28;20236;-79
2023/07/15 12:36:38;;;;;;;11.13;10.82;;;37.90;99.90;;;;;;5122836;28;20233;-79
2023/07/15 12:39:05;;;;;;;11.07;10.77;;;37.90;99.90;;;;;;5122266;28;20229;-79